Time;durP1;ratioP1;P1;durP2;ratioP2;P2;SDS_P1;SDS_P2;PMS_P1;PMS_P2;Temp;Humidity;BMP_temperature;BMP_pressure;BME280_temperature;BME280_humidity;BME280_pressure;Samples;Min_cycle;Max_cycle;Signal;HPM_P1;HPM_P2
2022/10/10 00:02:38;;;;;;;15.43;9.63;;;;;;;26.67;72.70;98753.75;4873340;29;20060;-67
2022/10/10 00:05:28;;;;;;;14.50;8.88;;;;;;;26.97;72.60;98756.72;4856697;29;20053;-67
2022/10/10 00:08:11;;;;;;;12.60;9.30;;;;;;;26.87;72.61;98759.81;4872442;29;20065;-68
2022/10/10 00:10:59;;;;;;;13.90;9.63;;;;;;;26.61;73.02;98766.03;4855793;29;20061;-67
2022/10/10 00:13:42;;;;;;;19.45;10.25;;;;;;;26.88;72.27;98759.47;4853903;29;20053;-66
2022/10/10 00:16:30;;;;;;;12.30;9.38;;;;;;;26.70;73.10;98764.13;4864344;29;20041;-67
2022/10/10 00:19:12;;;;;;;13.05;9.35;;;;;;;26.99;72.02;98762.72;4872947;29;20060;-66
2022/10/10 00:22:01;;;;;;;14.65;9.75;;;;;;;26.68;72.33;98773.84;4873684;29;20129;-67
2022/10/10 00:24:43;;;;;;;14.65;9.40;;;;;;;26.65;72.43;98764.25;4856607;29;20216;-67
2022/10/10 00:27:32;;;;;;;13.40;8.70;;;;;;;26.93;71.64;98766.78;4873455;29;20059;-67
2022/10/10 00:30:14;;;;;;;16.00;9.07;;;;;;;26.55;72.44;98772.78;4856546;29;20049;-66
2022/10/10 00:33:09;;;;;;;14.48;9.15;;;;;;;26.62;72.56;98773.19;4874191;29;20045;-67
2022/10/10 00:35:45;;;;;;;14.05;9.48;;;;;;;26.62;72.05;98777.84;4873340;29;20429;-67
2022/10/10 00:38:34;;;;;;;11.95;7.82;;;;;;;26.93;71.51;98773.09;4873480;29;20045;-67
2022/10/10 00:41:25;;;;;;;13.60;8.02;;;;;;;27.00;71.12;98775.38;4854796;29;20073;-66
2022/10/10 00:44:13;;;;;;;12.45;7.80;;;;;;;26.86;71.44;98782.94;4839773;29;20133;-67
2022/10/10 00:47:01;;;;;;;12.27;8.23;;;;;;;26.51;72.56;98789.13;4840282;29;20506;-67
2022/10/10 00:49:51;;;;;;;9.70;7.50;;;;;;;26.69;71.79;98779.03;4854865;29;20056;-67
2022/10/10 00:52:40;;;;;;;14.10;8.55;;;;;;;26.29;72.76;98791.94;4854729;29;20525;-66
2022/10/10 00:55:23;;;;;;;11.98;7.88;;;;;;;26.45;72.68;98793.16;4861532;29;20180;-66
2022/10/10 00:58:13;;;;;;;14.35;7.28;;;;;;;26.50;72.15;98794.94;4854452;29;20050;-67
2022/10/10 01:01:08;;;;;;;11.68;7.93;;;;;;;26.89;70.99;98791.38;4873559;29;20389;-67
2022/10/10 01:03:44;;;;;;;16.13;7.72;;;;;;;27.01;70.57;98795.47;4873209;29;20056;-67
2022/10/10 01:06:33;;;;;;;12.57;8.00;;;;;;;26.63;71.38;98804.25;4873060;29;20053;-67
2022/10/10 01:09:22;;;;;;;11.07;7.25;;;;;;;26.52;71.64;98800.94;4872775;29;20316;-65
2022/10/10 01:12:29;;;;;;;11.48;7.75;;;;;;;26.34;72.46;98806.38;4856435;29;20141;-67
2022/10/10 01:16:14;;;;;;;9.95;7.28;;;;;;;26.46;72.16;98804.97;4872649;29;20525;-66
2022/10/10 01:19:12;;;;;;;9.98;6.82;;;;;;;26.42;72.68;98812.25;4839626;29;20060;-67
2022/10/10 01:22:00;;;;;;;;;;;;;;;26.47;72.14;98812.91;4877012;29;20104;-67
2022/10/10 01:25:15;;;;;;;14.23;7.72;;;;;;;26.28;72.82;98815.09;4876743;29;19927;-67
2022/10/10 01:28:38;;;;;;;9.35;7.22;;;;;;;26.62;71.52;98817.22;4876435;29;20109;-66
2022/10/10 01:31:23;;;;;;;10.10;7.78;;;;;;;26.50;72.29;98815.03;4877651;29;20076;-67
2022/10/10 01:35:00;;;;;;;15.27;8.57;;;;;;;26.30;72.28;98821.09;4876354;29;20064;-67
2022/10/10 01:37:48;;;;;;;12.20;7.63;;;;;;;26.55;72.12;98820.38;4786896;29;20050;-67
2022/10/10 01:41:07;;;;;;;10.55;7.35;;;;;;;26.41;72.25;98827.94;4782643;29;20079;-66
2022/10/10 01:43:58;;;;;;;13.25;7.25;;;;;;;26.57;72.19;98822.81;4857317;29;20046;-67
2022/10/10 01:46:47;;;;;;;12.75;8.05;;;;;;;26.61;72.04;98837.59;4871758;29;20193;-67
2022/10/10 01:49:32;;;;;;;14.18;8.10;;;;;;;26.33;72.91;98836.94;4875891;29;20069;-68
2022/10/10 01:52:42;;;;;;;14.15;8.10;;;;;;;26.35;72.67;98834.72;4860959;29;20436;-67
2022/10/10 01:55:48;;;;;;;11.55;7.50;;;;;;;26.46;72.28;98835.25;4875736;29;20085;-66
2022/10/10 01:58:43;;;;;;;12.13;7.68;;;;;;;26.33;73.03;98835.03;4857675;29;20122;-67
2022/10/10 02:02:10;;;;;;;12.60;7.53;;;;;;;26.65;71.44;98833.09;4875397;29;20136;-66
2022/10/10 02:05:16;;;;;;;11.88;7.63;;;;;;;26.57;72.31;98828.34;4800272;29;20046;-67
2022/10/10 02:08:21;;;;;;;11.68;8.48;;;;;;;26.23;73.17;98843.53;4875584;29;20122;-67
2022/10/10 02:11:15;;;;;;;13.13;7.95;;;;;;;26.56;71.83;98848.75;4875230;29;20052;-67
2022/10/10 02:14:14;;;;;;;12.18;7.53;;;;;;;26.81;71.59;98852.75;4845159;29;20061;-66
2022/10/10 02:17:07;;;;;;;13.27;7.65;;;;;;;26.83;71.62;98849.69;4875001;29;20072;-67
2022/10/10 02:19:59;;;;;;;13.50;9.32;;;;;;;26.40;72.69;98856.56;4862164;29;20226;-68
2022/10/10 02:22:50;;;;;;;13.43;7.65;;;;;;;26.79;71.72;98854.19;4845512;29;20049;-67
2022/10/10 02:25:40;;;;;;;19.30;8.40;;;;;;;26.64;71.61;98867.25;4875369;29;20073;-67
2022/10/10 02:28:44;;;;;;;15.75;8.82;;;;;;;26.65;71.83;98863.38;4858173;29;20130;-67
2022/10/10 02:31:46;;;;;;;14.27;8.30;;;;;;;26.89;71.46;98856.69;4875380;29;20124;-67
2022/10/10 02:34:41;;;;;;;13.60;7.95;;;;;;;26.89;71.56;98863.00;4874281;29;20439;-67
2022/10/10 02:37:24;;;;;;;14.30;8.10;;;;;;;27.04;70.77;98870.00;4875246;29;20053;-67
2022/10/10 02:40:19;;;;;;;15.73;8.13;;;;;;;26.87;71.05;98867.19;4875039;29;20133;-67
2022/10/10 02:43:12;;;;;;;9.95;7.57;;;;;;;27.15;70.55;98865.81;4873816;29;20045;-67
2022/10/10 02:46:06;;;;;;;14.85;8.30;;;;;;;26.78;71.24;98874.59;4875256;29;20449;-67
2022/10/10 02:48:54;;;;;;;13.23;8.13;;;;;;;27.10;70.70;98870.69;4858412;29;20059;-68
2022/10/10 02:51:38;;;;;;;15.02;9.52;;;;;;;27.28;69.85;98888.09;4874939;29;20235;-68
2022/10/10 02:58:07;;;;;;;12.27;7.05;;;;;;;26.89;71.02;98893.28;4884360;28;20060;-71
2022/10/10 03:00:56;;;;;;;14.18;7.97;;;;;;;27.17;70.68;98892.22;4853341;29;20049;-73
2022/10/10 03:03:45;;;;;;;17.17;8.52;;;;;;;26.72;71.35;98894.00;4841697;29;20053;-73
2022/10/10 03:06:28;;;;;;;11.98;8.25;;;;;;;27.11;69.88;98897.06;4838710;29;20058;-72
2022/10/10 03:09:16;;;;;;;18.25;9.32;;;;;;;27.60;68.86;98897.06;4838245;29;20389;-72
2022/10/10 03:11:58;;;;;;;15.75;8.60;;;;;;;27.18;69.39;98899.38;4837334;29;20042;-72
2022/10/10 03:14:47;;;;;;;12.45;7.85;;;;;;;27.78;68.59;98901.44;4838310;29;20128;-74
2022/10/10 03:17:36;;;;;;;25.67;10.25;;;;;;;27.68;68.44;98901.75;4837123;29;20062;-73
2022/10/10 03:20:25;;;;;;;19.17;9.85;;;;;;;27.70;68.74;98897.53;4856460;29;20096;-73
2022/10/10 03:23:08;;;;;;;14.13;8.38;;;;;;;27.61;68.66;98912.47;4845981;29;20533;-72
2022/10/10 03:25:58;;;;;;;15.23;8.80;;;;;;;27.68;68.71;98916.34;4847030;29;20680;-72
2022/10/10 03:28:41;;;;;;;20.27;10.05;;;;;;;27.74;69.54;98914.25;4837245;29;20342;-73
2022/10/10 03:31:29;;;;;;;16.67;9.32;;;;;;;27.52;69.04;98921.53;4853326;29;20037;-74
2022/10/10 03:34:11;;;;;;;17.63;8.98;;;;;;;27.61;69.15;98929.84;4834388;29;20060;-74
2022/10/10 03:37:00;;;;;;;16.25;8.70;;;;;;;28.00;68.63;98924.53;4855022;29;20131;-73
2022/10/10 03:39:49;;;;;;;15.75;10.25;;;;;;;28.06;67.52;98924.03;4854889;29;20138;-73
2022/10/10 03:42:31;;;;;;;17.42;9.85;;;;;;;27.77;68.39;98927.41;4854010;29;20111;-73
2022/10/10 03:45:20;;;;;;;17.25;8.40;;;;;;;27.68;67.79;98937.63;4854270;29;20140;-74
2022/10/10 03:48:02;;;;;;;15.35;7.18;;;;;;;27.76;67.26;98936.81;4871482;29;20041;-74
2022/10/10 03:50:58;;;;;;;11.50;6.10;;;;;;;27.69;67.35;98936.50;4843424;29;20116;-72
2022/10/10 03:53:34;;;;;;;13.13;6.50;;;;;;;27.73;67.89;98940.22;4862853;29;20057;-71
2022/10/10 03:56:23;;;;;;;8.73;6.00;;;;;;;27.43;67.50;98939.19;4850318;29;20135;-75
2022/10/10 03:59:12;;;;;;;7.75;5.38;;;;;;;27.69;67.19;98928.22;4862926;29;20056;-71
2022/10/10 04:02:07;;;;;;;10.93;5.97;;;;;;;27.95;67.03;98944.00;4870388;29;20104;-71
2022/10/10 04:04:43;;;;;;;10.52;6.07;;;;;;;28.01;67.32;98937.19;4871402;29;20052;-72
2022/10/10 04:07:40;;;;;;;14.60;7.55;;;;;;;27.82;67.40;98935.53;4856075;29;20052;-71
2022/10/10 04:10:16;;;;;;;13.70;6.65;;;;;;;27.86;67.57;98942.03;4870904;29;20055;-71
2022/10/10 04:13:11;;;;;;;15.60;7.15;;;;;;;28.26;66.49;98939.13;4856343;29;20045;-73
2022/10/10 04:15:51;;;;;;;12.20;7.18;;;;;;;28.08;66.85;98937.50;4857436;29;20106;-71
2022/10/10 04:18:40;;;;;;;14.80;6.85;;;;;;;28.31;66.60;98936.19;4872902;29;20053;-70
2022/10/10 04:21:29;;;;;;;11.82;6.65;;;;;;;28.49;65.75;98936.19;4853229;29;20513;-71
2022/10/10 04:24:11;;;;;;;12.98;6.82;;;;;;;28.88;65.12;98932.34;4872515;29;20048;-71
2022/10/10 04:27:00;;;;;;;9.90;6.63;;;;;;;29.20;63.60;98932.09;4872689;29;20045;-71
2022/10/10 04:29:42;;;;;;;11.82;6.75;;;;;;;29.76;62.72;98938.28;4872690;29;20128;-71
2022/10/10 04:32:31;;;;;;;11.68;7.20;;;;;;;29.35;62.45;98934.31;4872037;29;20760;-74
2022/10/10 04:35:13;;;;;;;25.58;7.22;;;;;;;29.00;63.86;98942.69;4871432;29;20675;-72
2022/10/10 04:38:03;;;;;;;14.65;6.75;;;;;;;28.96;65.22;98944.50;4854418;29;20118;-72
2022/10/10 04:40:48;;;;;;;9.80;6.78;;;;;;;29.22;63.25;98941.69;4853485;29;20359;-71
2022/10/10 04:43:37;;;;;;;11.13;7.43;;;;;;;29.25;63.30;98934.66;4853747;29;20076;-70
2022/10/10 04:46:19;;;;;;;15.32;6.93;;;;;;;29.13;63.10;98934.56;4852163;29;20057;-71
2022/10/10 04:49:08;;;;;;;12.50;6.85;;;;;;;29.05;63.56;98936.19;4858267;29;20072;-71
2022/10/10 04:51:50;;;;;;;11.50;6.88;;;;;;;29.54;62.52;98930.28;4863806;29;20120;-71
2022/10/10 04:54:39;;;;;;;13.45;6.90;;;;;;;29.85;63.58;98924.41;4864422;29;20118;-71
2022/10/10 04:57:21;;;;;;;15.40;7.95;;;;;;;30.09;62.45;98920.94;4867332;29;20069;-71
2022/10/10 05:00:17;;;;;;;12.68;6.80;;;;;;;30.32;60.61;98929.72;4875017;28;20142;-72
2022/10/10 05:03:09;;;;;;;14.13;7.60;;;;;;;30.57;60.86;98919.53;4866939;29;20076;-71
2022/10/10 05:05:50;;;;;;;16.38;8.00;;;;;;;30.20;61.09;98919.38;4857227;29;20085;-71
2022/10/10 05:08:45;;;;;;;14.80;7.70;;;;;;;30.04;61.49;98910.09;4874759;29;20145;-71
2022/10/10 05:11:21;;;;;;;12.48;7.88;;;;;;;29.99;62.47;98905.56;4874209;29;20125;-73
2022/10/10 05:14:09;;;;;;;15.32;7.47;;;;;;;30.19;62.14;98912.25;4875518;29;20065;-72
2022/10/10 05:16:51;;;;;;;15.15;7.45;;;;;;;30.84;59.60;98906.22;4875778;29;20069;-71
2022/10/10 05:19:40;;;;;;;14.48;7.80;;;;;;;30.39;59.61;98909.78;4875255;29;20133;-74
2022/10/10 05:22:29;;;;;;;13.10;8.13;;;;;;;30.28;60.62;98903.84;4875423;29;20082;-71
2022/10/10 05:25:19;;;;;;;13.38;7.78;;;;;;;30.47;60.08;98908.88;4875491;29;20118;-73
2022/10/10 05:28:00;;;;;;;13.85;7.13;;;;;;;30.13;61.19;98902.50;4876031;29;20141;-72
2022/10/10 05:30:51;;;;;;;15.35;7.00;;;;;;;30.48;59.19;98899.44;4874841;29;20069;-71
2022/10/10 05:33:33;;;;;;;9.05;6.10;;;;;;;30.89;58.86;98905.97;4844959;29;20137;-71
2022/10/10 05:36:29;;;;;;;10.63;5.75;;;;;;;30.71;58.28;98915.66;4869665;29;20665;-72
2022/10/10 05:39:06;;;;;;;11.70;6.50;;;;;;;30.60;59.47;98905.00;4860615;29;20061;-72
2022/10/10 05:41:54;;;;;;;20.30;7.57;;;;;;;30.56;59.74;98908.81;4875906;29;20049;-71
2022/10/10 05:44:37;;;;;;;10.45;7.22;;;;;;;30.18;58.79;98904.25;4875407;29;20082;-71
2022/10/10 05:47:26;;;;;;;16.35;6.00;;;;;;;29.89;60.21;98905.97;4874849;29;20077;-66
2022/10/10 05:50:40;;;;;;;10.95;6.72;;;;;;;30.06;60.27;98902.25;4865390;29;20080;-70
2022/10/10 05:53:25;;;;;;;15.93;8.13;;;;;;;29.80;61.64;98906.03;4868631;29;20412;-69
2022/10/10 05:56:15;;;;;;;12.18;9.90;;;;;;;29.82;61.98;98908.47;4871732;29;20057;-69
2022/10/10 05:58:57;;;;;;;13.32;10.35;;;;;;;29.12;62.36;98908.88;4863439;29;20068;-70
2022/10/10 06:01:46;;;;;;;22.00;10.52;;;;;;;29.21;64.58;98906.88;4868623;29;20057;-69
2022/10/10 06:04:29;;;;;;;17.63;10.68;;;;;;;29.83;61.82;98896.28;4870572;29;20071;-68
2022/10/10 06:07:18;;;;;;;18.70;10.77;;;;;;;29.35;62.62;98895.59;4856563;29;20061;-66
2022/10/10 06:10:00;;;;;;;14.60;10.13;;;;;;;30.17;62.43;98889.63;4856452;29;20057;-70
2022/10/10 06:12:49;;;;;;;17.35;10.30;;;;;;;29.89;61.57;98883.03;4872589;29;20119;-71
2022/10/10 06:15:45;;;;;;;13.60;9.95;;;;;;;30.18;61.76;98891.22;4865278;29;20049;-71
2022/10/10 06:18:21;;;;;;;16.05;10.02;;;;;;;30.35;60.65;98881.19;4863089;29;20164;-70
2022/10/10 06:21:18;;;;;;;11.52;9.60;;;;;;;30.29;60.68;98886.09;4873483;29;20100;-70
2022/10/10 06:23:54;;;;;;;10.98;9.23;;;;;;;30.47;61.47;98883.16;4875217;29;20447;-68
2022/10/10 06:26:43;;;;;;;20.67;11.35;;;;;;;30.36;60.86;98880.84;4871040;29;20095;-70
2022/10/10 06:29:25;;;;;;;12.43;9.13;;;;;;;30.40;60.14;98867.91;4880920;29;20053;-73
2022/10/10 06:32:21;;;;;;;19.67;11.32;;;;;;;30.06;60.35;98863.50;4858836;29;20057;-72
2022/10/10 06:34:57;;;;;;;15.45;9.88;;;;;;;30.07;60.90;98865.13;4874264;29;20045;-73
2022/10/10 06:37:52;;;;;;;12.57;10.00;;;;;;;30.16;60.11;98854.78;4872980;29;20056;-72
2022/10/10 06:40:28;;;;;;;14.27;9.98;;;;;;;30.64;60.99;98853.28;4871946;29;20053;-72
2022/10/10 06:43:23;;;;;;;12.68;9.25;;;;;;;30.48;58.87;98841.28;4868730;29;20076;-73
2022/10/10 06:46:00;;;;;;;14.85;9.32;;;;;;;30.70;57.46;98842.00;4872142;29;20529;-73
2022/10/10 06:48:54;;;;;;;15.95;9.05;;;;;;;31.29;59.51;98827.66;4869419;29;20119;-72
2022/10/10 06:51:31;;;;;;;18.13;10.02;;;;;;;30.67;59.27;98831.59;4857383;29;20053;-72
2022/10/10 06:54:26;;;;;;;17.67;11.75;;;;;;;30.78;58.45;98828.03;4873320;29;20057;-72
2022/10/10 06:57:02;;;;;;;18.48;10.85;;;;;;;30.70;59.49;98819.81;4854445;29;20145;-71
2022/10/10 07:00:21;;;;;;;34.45;13.82;;;;;;;30.62;58.60;98819.59;4869157;29;20113;-72
2022/10/10 07:03:11;;;;;;;24.13;12.43;;;;;;;30.73;58.99;98819.16;4872548;29;20057;-74
2022/10/10 07:06:04;;;;;;;16.77;11.98;;;;;;;30.77;58.18;98814.53;4867267;29;20072;-72
2022/10/10 07:08:46;;;;;;;32.47;13.57;;;;;;;30.30;60.28;98810.16;4872339;29;20057;-75
2022/10/10 07:11:35;;;;;;;34.05;14.25;;;;;;;30.02;60.42;98807.22;4872804;29;20124;-75
2022/10/10 07:14:17;;;;;;;25.95;13.52;;;;;;;30.69;59.88;98807.13;4873025;29;20056;-74
2022/10/10 07:17:06;;;;;;;32.63;13.98;;;;;;;30.80;59.40;98803.56;4873087;29;20568;-73
2022/10/10 07:19:48;;;;;;;15.27;13.68;;;;;;;30.54;60.02;98803.09;4873065;29;20453;-76
2022/10/10 07:22:37;;;;;;;26.10;14.88;;;;;;;30.36;58.73;98810.78;4873316;29;20529;-75
2022/10/10 07:25:19;;;;;;;26.65;11.32;;;;;;;29.31;57.87;98805.38;4872671;29;20522;-75
2022/10/10 07:28:08;;;;;;;23.42;10.95;;;;;;;28.98;56.42;98803.28;4871845;29;20057;-76
2022/10/10 07:31:03;;;;;;;31.15;11.70;;;;;;;27.96;57.58;98811.28;4858931;29;20136;-74
2022/10/10 07:33:53;;;;;;;24.10;11.63;;;;;;;28.15;58.29;98799.88;4858296;29;20111;-72
2022/10/10 07:36:45;;;;;;;27.50;10.98;;;;;;;28.02;58.41;98796.16;4872296;29;20053;-73
2022/10/10 07:39:31;;;;;;;20.13;11.80;;;;;;;27.53;59.42;98804.63;4855533;29;20352;-72
2022/10/10 07:42:27;;;;;;;17.05;10.30;;;;;;;27.70;58.50;98789.22;4872941;29;20152;-75
2022/10/10 07:45:04;;;;;;;20.50;9.43;;;;;;;27.91;58.70;98784.66;4872382;29;20543;-73
2022/10/10 07:47:59;;;;;;;17.23;10.27;;;;;;;27.40;59.02;98774.44;4872122;29;20045;-73
2022/10/10 07:50:39;;;;;;;17.27;10.00;;;;;;;27.67;58.63;98770.56;4854131;29;20080;-77
2022/10/10 07:53:33;;;;;;;12.45;9.52;;;;;;;27.57;57.81;98784.66;4853324;29;20077;-70
2022/10/10 07:56:10;;;;;;;21.27;12.30;;;;;;;27.83;57.39;98768.09;4853931;29;20049;-70
2022/10/10 07:59:04;;;;;;;21.90;10.80;;;;;;;27.69;57.74;98760.03;4864036;29;20481;-75
2022/10/10 08:02:00;;;;;;;24.80;11.43;;;;;;;27.75;58.37;98755.97;4855779;29;20060;-72
2022/10/10 08:04:36;;;;;;;20.38;11.48;;;;;;;27.79;59.51;98754.16;4872428;29;20049;-72
2022/10/10 08:07:31;;;;;;;29.33;10.77;;;;;;;27.54;59.25;98742.84;4871968;29;20059;-71
2022/10/10 08:10:08;;;;;;;29.58;11.30;;;;;;;27.60;60.40;98746.25;4855638;29;20057;-71
2022/10/10 08:13:03;;;;;;;19.00;11.07;;;;;;;28.02;61.08;98745.72;4871953;29;20262;-72
2022/10/10 08:15:40;;;;;;;17.45;11.60;;;;;;;27.83;60.18;98749.59;4855457;29;20153;-72
2022/10/10 08:18:35;;;;;;;24.45;11.93;;;;;;;28.07;59.88;98756.53;4871712;29;20056;-71
2022/10/10 08:21:13;;;;;;;21.70;11.45;;;;;;;28.21;60.95;98748.88;4871922;29;20061;-71
2022/10/10 08:24:08;;;;;;;21.85;12.70;;;;;;;28.14;60.42;98748.56;4872322;29;20862;-72
2022/10/10 08:26:44;;;;;;;24.67;13.32;;;;;;;28.08;61.16;98755.41;4870482;29;20064;-71
2022/10/10 08:29:39;;;;;;;33.85;14.57;;;;;;;27.54;62.02;98737.31;4851777;29;20053;-71
2022/10/10 08:32:15;;;;;;;24.05;13.52;;;;;;;27.60;63.99;98731.66;4871941;29;20843;-70
2022/10/10 08:35:11;;;;;;;18.10;12.77;;;;;;;27.33;63.85;98739.13;4871998;29;20049;-70
2022/10/10 08:37:47;;;;;;;22.35;11.70;;;;;;;27.57;63.03;98746.06;4855718;29;20100;-70
2022/10/10 08:41:00;;;;;;;22.15;10.95;;;;;;;26.90;63.49;98724.19;4870723;29;20049;-70
2022/10/10 08:43:49;;;;;;;18.95;10.40;;;;;;;27.01;62.80;98716.41;4856464;29;20133;-70
2022/10/10 08:46:41;;;;;;;20.23;9.57;;;;;;;27.07;62.62;98712.34;4871939;29;20061;-70
2022/10/10 08:49:44;;;;;;;15.93;9.43;;;;;;;27.48;61.98;98713.03;4855823;29;20056;-70
2022/10/10 08:52:50;;;;;;;26.15;11.32;;;;;;;27.72;61.01;98710.56;4882994;29;20714;-70
2022/10/10 08:55:43;;;;;;;14.43;9.07;;;;;;;27.87;60.22;98709.19;4882109;29;20060;-70
2022/10/10 08:58:37;;;;;;;11.48;7.82;;;;;;;27.73;58.78;98701.13;4864715;29;20056;-70
2022/10/10 09:01:43;;;;;;;18.90;8.48;;;;;;;28.08;58.75;98697.47;4849867;29;20054;-69
2022/10/10 09:04:39;;;;;;;13.40;8.82;;;;;;;27.99;57.51;98691.19;4838440;29;20142;-69
2022/10/10 09:07:43;;;;;;;16.63;9.27;;;;;;;28.30;57.48;98675.16;4836789;29;20143;-70
2022/10/10 09:10:48;;;;;;;14.48;9.40;;;;;;;28.46;56.67;98680.09;4852380;29;20088;-70
2022/10/10 09:13:47;;;;;;;11.52;8.55;;;;;;;28.40;57.34;98682.22;4837908;29;20081;-70
2022/10/10 09:16:46;;;;;;;15.48;9.30;;;;;;;28.26;56.33;98673.38;4852308;29;20057;-69
2022/10/10 09:19:55;;;;;;;15.88;10.05;;;;;;;28.40;57.30;98664.88;4850922;29;20473;-69
2022/10/10 09:22:39;;;;;;;12.80;9.77;;;;;;;28.93;56.35;98662.56;4851790;29;20072;-70
2022/10/10 09:25:44;;;;;;;14.95;9.55;;;;;;;29.19;56.99;98665.97;4851294;29;20132;-70
2022/10/10 09:28:37;;;;;;;14.32;10.43;;;;;;;29.14;56.00;98641.31;4852117;29;20609;-70
2022/10/10 09:31:39;;;;;;;15.40;11.18;;;;;;;29.00;55.37;98641.53;4838555;29;20546;-70
2022/10/10 09:34:26;;;;;;;20.75;10.90;;;;;;;29.25;57.03;98636.16;4822844;29;20323;-70
2022/10/10 09:37:36;;;;;;;18.83;10.38;;;;;;;29.49;57.32;98627.13;4853206;29;20432;-70
2022/10/10 09:40:25;;;;;;;16.42;11.30;;;;;;;29.67;56.78;98620.28;4854459;29;20716;-70
2022/10/10 09:43:25;;;;;;;22.10;12.50;;;;;;;29.60;55.53;98608.97;4856552;29;20057;-71
2022/10/10 09:46:01;;;;;;;15.95;12.55;;;;;;;29.44;54.45;98611.56;4840221;29;20061;-70
2022/10/10 09:48:58;;;;;;;27.33;13.93;;;;;;;29.51;54.74;98594.41;4840305;29;20900;-71
2022/10/10 09:51:34;;;;;;;22.25;12.77;;;;;;;29.60;55.54;98597.91;4840510;29;20090;-71
2022/10/10 09:54:29;;;;;;;20.27;13.32;;;;;;;29.47;54.84;98583.22;4838683;29;20049;-70
2022/10/10 09:57:05;;;;;;;28.55;14.10;;;;;;;29.52;56.81;98579.44;4854082;29;20689;-75
2022/10/10 10:00:01;;;;;;;;;;;;;;;29.96;54.46;98587.22;4844233;29;20106;-71
2022/10/10 10:03:19;;;;;;;22.35;13.40;;;;;;;29.76;52.97;98577.88;4855524;29;19948;-71
2022/10/10 10:06:08;;;;;;;22.48;13.93;;;;;;;29.72;54.59;98574.16;4852430;29;20116;-70
2022/10/10 10:08:52;;;;;;;23.88;14.10;;;;;;;29.42;53.70;98561.34;4856157;29;20529;-70
2022/10/10 10:11:44;;;;;;;27.60;14.65;;;;;;;29.81;54.31;98563.84;4855093;29;20053;-70
2022/10/10 10:14:35;;;;;;;23.30;14.38;;;;;;;29.79;53.92;98558.66;4854253;29;20110;-70
2022/10/10 10:17:29;;;;;;;27.00;15.20;;;;;;;30.07;54.31;98560.69;4841122;29;20041;-70
2022/10/10 10:20:29;;;;;;;23.27;15.30;;;;;;;30.03;54.26;98552.28;4842864;29;20486;-71
2022/10/10 10:24:16;;;;;;;23.08;15.02;;;;;;;30.04;54.40;98553.91;4825790;29;20061;-70
2022/10/10 10:27:16;;;;;;;22.50;14.82;;;;;;;30.16;52.15;98557.81;4809885;29;20054;-70
2022/10/10 10:30:04;;;;;;;20.15;14.13;;;;;;;29.77;53.19;98541.59;4851562;29;20404;-70
2022/10/10 10:33:31;;;;;;;24.60;15.82;;;;;;;30.05;52.68;98540.88;4854386;29;20405;-70
2022/10/10 10:36:48;;;;;;;24.45;16.02;;;;;;;29.97;53.49;98526.00;4852942;29;20060;-69
2022/10/10 10:39:49;;;;;;;36.78;16.95;;;;;;;30.05;52.75;98508.47;4855414;29;20073;-69
2022/10/10 10:42:39;;;;;;;21.45;14.50;;;;;;;30.07;52.09;98505.34;4838936;29;20595;-69
2022/10/10 10:45:43;;;;;;;34.00;15.35;;;;;;;30.16;51.95;98519.88;4809603;29;20064;-70
2022/10/10 10:48:45;;;;;;;24.02;14.75;;;;;;;30.13;51.89;98519.75;4855111;29;20518;-69
2022/10/10 10:51:42;;;;;;;22.25;13.93;;;;;;;30.10;52.70;98532.34;4854164;29;20126;-69
2022/10/10 10:54:50;;;;;;;19.63;13.57;;;;;;;29.79;51.64;98517.16;4854199;29;20057;-69
2022/10/10 10:58:13;;;;;;;23.85;13.93;;;;;;;30.14;51.76;98510.31;4853992;29;20508;-69
2022/10/10 11:01:56;;;;;;;29.75;13.35;;;;;;;30.03;50.57;98509.97;4853420;29;20061;-68
2022/10/10 11:05:17;;;;;;;19.38;13.15;;;;;;;30.18;52.81;98506.47;4869758;29;20737;-68
2022/10/10 11:08:42;;;;;;;23.30;14.38;;;;;;;30.06;51.99;98509.28;4873402;29;20124;-72
2022/10/10 11:11:52;;;;;;;25.45;14.32;;;;;;;29.91;53.63;98501.69;4859197;29;20544;-73
2022/10/10 11:14:47;;;;;;;27.02;13.95;;;;;;;29.93;54.20;98504.94;4875253;29;20289;-73
2022/10/10 11:17:50;;;;;;;22.95;13.75;;;;;;;29.77;54.58;98497.34;4856818;29;20049;-71
2022/10/10 11:20:38;;;;;;;21.35;13.88;;;;;;;29.74;53.44;98498.00;4872568;29;20219;-68
2022/10/10 11:23:37;;;;;;;24.55;15.35;;;;;;;29.77;55.26;98502.03;4873143;29;20524;-73
2022/10/10 11:26:37;;;;;;;21.07;14.50;;;;;;;29.61;56.70;98504.69;4857320;29;20452;-68
2022/10/10 11:29:36;;;;;;;30.10;15.35;;;;;;;29.38;56.06;98499.59;4871900;29;20477;-71
2022/10/10 11:32:27;;;;;;;29.00;15.65;;;;;;;29.37;55.44;98500.75;4872820;29;20095;-71
2022/10/10 11:35:30;;;;;;;26.58;16.23;;;;;;;29.69;56.88;98506.50;4872422;29;20064;-71
2022/10/10 11:38:16;;;;;;;26.40;16.27;;;;;;;29.80;55.30;98501.34;4872595;29;20081;-70
2022/10/10 11:41:50;;;;;;;21.70;14.75;;;;;;;29.54;56.04;98498.91;4855085;29;20056;-70
2022/10/10 11:44:45;;;;;;;25.20;16.27;;;;;;;29.72;56.19;98494.75;4795800;29;20162;-70
2022/10/10 11:47:33;;;;;;;25.63;16.83;;;;;;;29.85;56.89;98499.16;4796501;29;20146;-69
2022/10/10 11:50:28;;;;;;;25.88;15.95;;;;;;;29.50;57.65;98509.03;4872494;29;20141;-68
2022/10/10 11:53:34;;;;;;;30.83;17.13;;;;;;;29.44;58.06;98519.53;4865234;29;20048;-68
2022/10/10 11:56:39;;;;;;;28.92;16.98;;;;;;;29.54;59.81;98521.84;4860914;29;20057;-71
2022/10/10 11:59:29;;;;;;;25.88;16.13;;;;;;;29.56;58.47;98524.25;4849690;29;20478;-69
2022/10/10 12:02:27;;;;;;;26.40;16.90;;;;;;;29.51;59.42;98519.75;4856095;29;20060;-74
2022/10/10 12:05:05;;;;;;;32.13;16.35;;;;;;;29.45;59.15;98524.72;4861780;29;20057;-69
2022/10/10 12:08:05;;;;;;;27.92;17.25;;;;;;;29.39;60.58;98519.78;4862930;29;20668;-72
2022/10/10 12:11:00;;;;;;;24.38;16.08;;;;;;;29.42;59.60;98525.38;4862299;29;20108;-71
2022/10/10 12:13:59;;;;;;;27.50;17.48;;;;;;;29.38;61.34;98524.47;4862977;29;20081;-71
2022/10/10 12:16:43;;;;;;;25.08;15.82;;;;;;;29.25;61.69;98526.44;4853522;29;20121;-74
2022/10/10 12:19:39;;;;;;;30.45;15.85;;;;;;;29.18;62.19;98525.38;4853913;29;20848;-73
2022/10/10 12:22:28;;;;;;;29.33;16.13;;;;;;;29.09;62.65;98531.75;4868134;29;20064;-71
2022/10/10 12:25:31;;;;;;;23.48;15.85;;;;;;;29.21;62.33;98528.25;4869540;29;20072;-71
2022/10/10 12:28:13;;;;;;;26.02;16.17;;;;;;;28.93;62.37;98541.03;4860980;29;20057;-72
2022/10/10 12:31:10;;;;;;;24.83;14.73;;;;;;;28.94;62.12;98548.97;4866466;29;20041;-72
2022/10/10 12:33:46;;;;;;;28.00;14.43;;;;;;;28.70;63.42;98544.19;4868531;29;20497;-72
2022/10/10 12:36:57;;;;;;;20.97;13.13;;;;;;;28.83;62.42;98543.09;4841634;29;20524;-69
2022/10/10 12:40:11;;;;;;;25.50;14.13;;;;;;;28.92;63.22;98539.44;4863727;29;20056;-71
2022/10/10 12:42:54;;;;;;;44.55;15.27;;;;;;;28.90;62.73;98531.47;4857134;29;20057;-74
2022/10/10 12:45:43;;;;;;;21.40;14.18;;;;;;;28.96;62.35;98541.16;4848298;29;20052;-77
2022/10/10 12:48:25;;;;;;;21.98;13.43;;;;;;;29.03;62.48;98535.09;4847895;29;20076;-77
2022/10/10 12:51:27;;;;;;;21.38;13.35;;;;;;;28.92;63.66;98523.66;4868496;29;20078;-73
2022/10/10 12:54:40;;;;;;;24.08;14.02;;;;;;;28.89;63.22;98543.66;4871399;29;20060;-76
2022/10/10 12:57:32;;;;;;;18.95;13.68;;;;;;;28.95;62.56;98542.31;4871544;29;20123;-76
2022/10/10 13:00:23;;;;;;;26.33;13.32;;;;;;;28.97;62.57;98540.03;4871253;29;20113;-75
2022/10/10 13:03:26;;;;;;;25.02;12.60;;;;;;;29.02;63.28;98545.31;4869615;29;20359;-73
2022/10/10 13:06:23;;;;;;;21.88;13.05;;;;;;;28.87;62.95;98543.19;4870755;29;20535;-72
2022/10/10 13:09:22;;;;;;;23.67;13.13;;;;;;;28.85;63.19;98549.06;4871419;29;20061;-74
2022/10/10 13:12:06;;;;;;;23.40;13.73;;;;;;;28.91;63.34;98555.19;4871911;29;20481;-73
2022/10/10 13:14:55;;;;;;;20.67;13.30;;;;;;;28.83;63.30;98550.53;4871636;29;20052;-69
2022/10/10 13:17:40;;;;;;;33.08;13.43;;;;;;;28.64;64.04;98546.34;4874759;29;20063;-75
2022/10/10 13:20:42;;;;;;;25.60;13.38;;;;;;;28.80;64.36;98565.06;4866035;29;20117;-71
2022/10/10 13:23:39;;;;;;;26.77;14.10;;;;;;;28.85;63.78;98553.78;4866233;29;20049;-70